sensor_id;sensor_type;location;lat;lon;timestamp;temperature;humidity
7048;DHT22;3565;53.254;10.352;2023-01-01T00:03:19;15.80;1.00
7048;DHT22;3565;53.254;10.352;2023-01-01T00:05:49;15.70;1.00
7048;DHT22;3565;53.254;10.352;2023-01-01T00:08:18;15.70;1.00
7048;DHT22;3565;53.254;10.352;2023-01-01T00:10:47;15.80;1.00
7048;DHT22;3565;53.254;10.352;2023-01-01T00:13:17;15.80;1.00
7048;DHT22;3565;53.254;10.352;2023-01-01T00:15:46;15.80;1.00
7048;DHT22;3565;53.254;10.352;2023-01-01T00:21:00;15.80;1.00
7048;DHT22;3565;53.254;10.352;2023-01-01T00:23:31;15.80;1.00
7048;DHT22;3565;53.254;10.352;2023-01-01T00:26:00;15.70;1.00
7048;DHT22;3565;53.254;10.352;2023-01-01T00:28:30;15.80;1.00
7048;DHT22;3565;53.254;10.352;2023-01-01T00:31:04;15.80;1.00
7048;DHT22;3565;53.254;10.352;2023-01-01T00:33:30;15.80;1.00
7048;DHT22;3565;53.254;10.352;2023-01-01T00:36:07;15.70;1.00
7048;DHT22;3565;53.254;10.352;2023-01-01T00:38:37;15.80;1.00
7048;DHT22;3565;53.254;10.352;2023-01-01T00:41:07;15.80;1.00
7048;DHT22;3565;53.254;10.352;2023-01-01T00:43:37;15.80;1.00
7048;DHT22;3565;53.254;10.352;2023-01-01T00:46:08;15.80;1.00
7048;DHT22;3565;53.254;10.352;2023-01-01T00:51:16;15.90;1.00
7048;DHT22;3565;53.254;10.352;2023-01-01T00:53:45;15.90;1.00
7048;DHT22;3565;53.254;10.352;2023-01-01T00:56:15;15.70;1.00
7048;DHT22;3565;53.254;10.352;2023-01-01T01:01:21;15.80;1.00
7048;DHT22;3565;53.254;10.352;2023-01-01T01:03:51;15.90;1.00
7048;DHT22;3565;53.254;10.352;2023-01-01T01:06:20;15.80;1.00
7048;DHT22;3565;53.254;10.352;2023-01-01T01:08:51;15.80;1.00
7048;DHT22;3565;53.254;10.352;2023-01-01T01:11:22;15.90;1.00
7048;DHT22;3565;53.254;10.352;2023-01-01T01:13:52;16.00;1.00
7048;DHT22;3565;53.254;10.352;2023-01-01T01:16:25;15.90;1.00
7048;DHT22;3565;53.254;10.352;2023-01-01T01:18:56;15.90;1.00
7048;DHT22;3565;53.254;10.352;2023-01-01T01:21:28;15.80;1.00
7048;DHT22;3565;53.254;10.352;2023-01-01T01:23:58;15.80;1.00
7048;DHT22;3565;53.254;10.352;2023-01-01T01:29:07;15.90;1.00
7048;DHT22;3565;53.254;10.352;2023-01-01T01:31:37;15.90;1.00
7048;DHT22;3565;53.254;10.352;2023-01-01T01:34:07;15.90;1.00
7048;DHT22;3565;53.254;10.352;2023-01-01T01:36:36;15.90;1.00
7048;DHT22;3565;53.254;10.352;2023-01-01T01:39:06;16.00;1.00
7048;DHT22;3565;53.254;10.352;2023-01-01T01:41:35;15.90;1.00
7048;DHT22;3565;53.254;10.352;2023-01-01T01:46:54;15.90;1.00
7048;DHT22;3565;53.254;10.352;2023-01-01T01:52:14;15.90;1.00
7048;DHT22;3565;53.254;10.352;2023-01-01T01:54:44;16.00;1.00
7048;DHT22;3565;53.254;10.352;2023-01-01T01:57:14;16.00;1.00
7048;DHT22;3565;53.254;10.352;2023-01-01T01:59:46;16.00;1.00
7048;DHT22;3565;53.254;10.352;2023-01-01T02:02:19;16.00;1.00
7048;DHT22;3565;53.254;10.352;2023-01-01T02:04:48;16.00;1.00
7048;DHT22;3565;53.254;10.352;2023-01-01T02:07:18;16.00;1.00
7048;DHT22;3565;53.254;10.352;2023-01-01T02:12:28;16.10;1.00
7048;DHT22;3565;53.254;10.352;2023-01-01T02:14:57;16.10;1.00
7048;DHT22;3565;53.254;10.352;2023-01-01T02:17:30;16.10;1.00
7048;DHT22;3565;53.254;10.352;2023-01-01T02:20:17;16.00;1.00
7048;DHT22;3565;53.254;10.352;2023-01-01T02:26:19;16.00;1.00
7048;DHT22;3565;53.254;10.352;2023-01-01T02:31:41;16.00;1.00
7048;DHT22;3565;53.254;10.352;2023-01-01T02:34:10;15.90;1.00
7048;DHT22;3565;53.254;10.352;2023-01-01T02:36:43;16.10;1.00
7048;DHT22;3565;53.254;10.352;2023-01-01T02:39:14;16.00;1.00
7048;DHT22;3565;53.254;10.352;2023-01-01T02:41:47;16.00;1.00
7048;DHT22;3565;53.254;10.352;2023-01-01T02:44:18;16.00;1.00
7048;DHT22;3565;53.254;10.352;2023-01-01T02:46:48;16.10;1.00
7048;DHT22;3565;53.254;10.352;2023-01-01T02:49:17;16.00;1.00
7048;DHT22;3565;53.254;10.352;2023-01-01T02:54:34;16.10;1.00
7048;DHT22;3565;53.254;10.352;2023-01-01T02:59:48;16.10;1.00
7048;DHT22;3565;53.254;10.352;2023-01-01T03:02:40;16.00;1.00
7048;DHT22;3565;53.254;10.352;2023-01-01T03:07:58;15.80;1.00
7048;DHT22;3565;53.254;10.352;2023-01-01T03:10:32;15.70;1.00
7048;DHT22;3565;53.254;10.352;2023-01-01T03:15:45;15.60;99.90
7048;DHT22;3565;53.254;10.352;2023-01-01T03:18:17;15.60;99.90
7048;DHT22;3565;53.254;10.352;2023-01-01T03:20:50;15.60;99.90
7048;DHT22;3565;53.254;10.352;2023-01-01T03:23:24;15.50;99.90
7048;DHT22;3565;53.254;10.352;2023-01-01T03:25:56;15.60;99.90
7048;DHT22;3565;53.254;10.352;2023-01-01T03:28:29;15.60;99.90
7048;DHT22;3565;53.254;10.352;2023-01-01T03:33:43;15.60;99.90
7048;DHT22;3565;53.254;10.352;2023-01-01T03:36:17;15.60;99.90
7048;DHT22;3565;53.254;10.352;2023-01-01T03:38:49;15.50;99.90
7048;DHT22;3565;53.254;10.352;2023-01-01T03:41:21;15.50;99.90
7048;DHT22;3565;53.254;10.352;2023-01-01T03:43:54;15.40;99.90
7048;DHT22;3565;53.254;10.352;2023-01-01T03:46:26;15.20;1.00
7048;DHT22;3565;53.254;10.352;2023-01-01T03:48:56;15.20;1.00
7048;DHT22;3565;53.254;10.352;2023-01-01T03:54:19;15.10;1.00
7048;DHT22;3565;53.254;10.352;2023-01-01T03:59:28;15.00;1.00
7048;DHT22;3565;53.254;10.352;2023-01-01T04:01:58;15.10;1.00
7048;DHT22;3565;53.254;10.352;2023-01-01T04:04:29;15.20;14.00
7048;DHT22;3565;53.254;10.352;2023-01-01T04:06:59;15.10;1.00
7048;DHT22;3565;53.254;10.352;2023-01-01T04:12:10;15.20;1.00
7048;DHT22;3565;53.254;10.352;2023-01-01T04:14:40;15.20;1.00
7048;DHT22;3565;53.254;10.352;2023-01-01T04:17:10;15.10;1.00
7048;DHT22;3565;53.254;10.352;2023-01-01T04:19:40;15.10;1.00
7048;DHT22;3565;53.254;10.352;2023-01-01T04:22:09;15.10;1.00
7048;DHT22;3565;53.254;10.352;2023-01-01T04:24:39;15.20;1.00
7048;DHT22;3565;53.254;10.352;2023-01-01T04:27:08;15.20;1.00
7048;DHT22;3565;53.254;10.352;2023-01-01T04:29:37;15.30;1.00
7048;DHT22;3565;53.254;10.352;2023-01-01T04:32:08;15.30;99.90
7048;DHT22;3565;53.254;10.352;2023-01-01T04:34:38;15.30;99.90
7048;DHT22;3565;53.254;10.352;2023-01-01T04:37:07;15.40;99.90
7048;DHT22;3565;53.254;10.352;2023-01-01T04:39:36;15.50;99.90
7048;DHT22;3565;53.254;10.352;2023-01-01T04:42:06;15.50;99.90
7048;DHT22;3565;53.254;10.352;2023-01-01T04:44:36;15.50;99.90
7048;DHT22;3565;53.254;10.352;2023-01-01T04:47:06;15.50;99.90
7048;DHT22;3565;53.254;10.352;2023-01-01T04:49:35;15.50;99.90
7048;DHT22;3565;53.254;10.352;2023-01-01T04:52:05;15.60;1.00
7048;DHT22;3565;53.254;10.352;2023-01-01T04:54:36;15.50;1.00
7048;DHT22;3565;53.254;10.352;2023-01-01T04:57:05;15.50;1.00
7048;DHT22;3565;53.254;10.352;2023-01-01T04:59:34;15.50;1.00
7048;DHT22;3565;53.254;10.352;2023-01-01T05:02:04;15.50;1.00
7048;DHT22;3565;53.254;10.352;2023-01-01T05:04:33;15.40;1.00
7048;DHT22;3565;53.254;10.352;2023-01-01T05:07:03;15.40;1.00
7048;DHT22;3565;53.254;10.352;2023-01-01T05:09:32;15.40;99.90
7048;DHT22;3565;53.254;10.352;2023-01-01T05:12:01;15.50;99.90
7048;DHT22;3565;53.254;10.352;2023-01-01T05:14:30;15.60;99.90
7048;DHT22;3565;53.254;10.352;2023-01-01T05:17:00;15.60;99.90
7048;DHT22;3565;53.254;10.352;2023-01-01T05:19:29;15.60;99.90
7048;DHT22;3565;53.254;10.352;2023-01-01T05:21:58;15.60;99.90
7048;DHT22;3565;53.254;10.352;2023-01-01T05:24:28;15.60;99.90
7048;DHT22;3565;53.254;10.352;2023-01-01T05:26:58;15.60;99.90
7048;DHT22;3565;53.254;10.352;2023-01-01T05:29:27;15.60;99.90
7048;DHT22;3565;53.254;10.352;2023-01-01T05:31:56;15.60;99.90
7048;DHT22;3565;53.254;10.352;2023-01-01T05:34:27;15.50;1.00
7048;DHT22;3565;53.254;10.352;2023-01-01T05:36:56;15.50;1.00
7048;DHT22;3565;53.254;10.352;2023-01-01T05:39:25;15.40;1.00
7048;DHT22;3565;53.254;10.352;2023-01-01T05:44:22;15.40;99.90
7048;DHT22;3565;53.254;10.352;2023-01-01T05:51:53;15.30;99.90
7048;DHT22;3565;53.254;10.352;2023-01-01T05:59:24;15.20;1.00
7048;DHT22;3565;53.254;10.352;2023-01-01T06:04:22;15.20;1.00
7048;DHT22;3565;53.254;10.352;2023-01-01T06:06:52;15.20;99.90
7048;DHT22;3565;53.254;10.352;2023-01-01T06:21:45;15.10;1.00
7048;DHT22;3565;53.254;10.352;2023-01-01T06:26:44;15.20;1.00
7048;DHT22;3565;53.254;10.352;2023-01-01T06:31:43;15.10;99.90
7048;DHT22;3565;53.254;10.352;2023-01-01T06:36:42;15.10;8.40
7048;DHT22;3565;53.254;10.352;2023-01-01T06:46:37;15.10;99.90
7048;DHT22;3565;53.254;10.352;2023-01-01T06:49:09;15.10;99.90
7048;DHT22;3565;53.254;10.352;2023-01-01T06:54:10;15.00;99.90
7048;DHT22;3565;53.254;10.352;2023-01-01T06:56:39;15.00;99.90
7048;DHT22;3565;53.254;10.352;2023-01-01T07:06:38;15.00;99.90
7048;DHT22;3565;53.254;10.352;2023-01-01T07:09:08;15.10;99.90
7048;DHT22;3565;53.254;10.352;2023-01-01T07:29:02;15.00;99.90
7048;DHT22;3565;53.254;10.352;2023-01-01T07:31:32;15.00;99.90
7048;DHT22;3565;53.254;10.352;2023-01-01T08:01:19;14.90;99.90
7048;DHT22;3565;53.254;10.352;2023-01-01T08:13:49;14.90;99.90
7048;DHT22;3565;53.254;10.352;2023-01-01T08:18:48;14.80;99.90
7048;DHT22;3565;53.254;10.352;2023-01-01T08:21:17;14.90;99.90
7048;DHT22;3565;53.254;10.352;2023-01-01T08:38:41;14.90;99.90
7048;DHT22;3565;53.254;10.352;2023-01-01T08:43:38;15.00;99.90
7048;DHT22;3565;53.254;10.352;2023-01-01T08:58:32;15.00;99.90
7048;DHT22;3565;53.254;10.352;2023-01-01T09:01:01;14.90;99.90
7048;DHT22;3565;53.254;10.352;2023-01-01T09:06:02;14.80;99.90
7048;DHT22;3565;53.254;10.352;2023-01-01T09:08:31;14.80;99.90
7048;DHT22;3565;53.254;10.352;2023-01-01T10:05:58;15.00;99.90
7048;DHT22;3565;53.254;10.352;2023-01-01T10:11:19;15.00;99.90
7048;DHT22;3565;53.254;10.352;2023-01-01T10:21:26;14.80;99.90
7048;DHT22;3565;53.254;10.352;2023-01-01T10:24:01;14.80;99.90
7048;DHT22;3565;53.254;10.352;2023-01-01T10:26:32;14.90;99.90
7048;DHT22;3565;53.254;10.352;2023-01-01T10:34:07;14.70;99.90
7048;DHT22;3565;53.254;10.352;2023-01-01T10:36:35;14.80;99.90
7048;DHT22;3565;53.254;10.352;2023-01-01T10:39:05;14.80;99.90
7048;DHT22;3565;53.254;10.352;2023-01-01T10:59:34;14.60;99.90
7048;DHT22;3565;53.254;10.352;2023-01-01T11:07:20;14.50;99.90
7048;DHT22;3565;53.254;10.352;2023-01-01T11:14:53;14.80;99.90
7048;DHT22;3565;53.254;10.352;2023-01-01T11:35:19;14.30;99.90
7048;DHT22;3565;53.254;10.352;2023-01-01T11:40:20;14.20;99.90
7048;DHT22;3565;53.254;10.352;2023-01-01T11:42:52;14.10;99.90
7048;DHT22;3565;53.254;10.352;2023-01-01T11:45:25;14.10;99.90
7048;DHT22;3565;53.254;10.352;2023-01-01T11:56:37;14.10;99.90
7048;DHT22;3565;53.254;10.352;2023-01-01T12:31:52;13.70;99.90
7048;DHT22;3565;53.254;10.352;2023-01-01T12:36:56;13.70;99.90
7048;DHT22;3565;53.254;10.352;2023-01-01T12:50:02;13.60;99.90
7048;DHT22;3565;53.254;10.352;2023-01-01T12:52:37;13.70;99.90
7048;DHT22;3565;53.254;10.352;2023-01-01T13:05:23;13.70;99.90
7048;DHT22;3565;53.254;10.352;2023-01-01T13:15:45;14.00;99.90
7048;DHT22;3565;53.254;10.352;2023-01-01T13:26:41;13.90;99.90
7048;DHT22;3565;53.254;10.352;2023-01-01T13:37:44;13.50;99.90
7048;DHT22;3565;53.254;10.352;2023-01-01T13:40:49;13.20;99.90
7048;DHT22;3565;53.254;10.352;2023-01-01T13:43:31;13.20;99.90
7048;DHT22;3565;53.254;10.352;2023-01-01T13:51:16;13.10;99.90
7048;DHT22;3565;53.254;10.352;2023-01-01T14:09:29;12.90;99.90
7048;DHT22;3565;53.254;10.352;2023-01-01T14:12:07;12.90;99.90
7048;DHT22;3565;53.254;10.352;2023-01-01T14:45:11;12.40;99.90
7048;DHT22;3565;53.254;10.352;2023-01-01T15:00:19;12.40;99.90
7048;DHT22;3565;53.254;10.352;2023-01-01T15:02:44;12.30;99.90
7048;DHT22;3565;53.254;10.352;2023-01-01T15:08:17;12.20;99.90
7048;DHT22;3565;53.254;10.352;2023-01-01T15:10:47;12.20;99.90
7048;DHT22;3565;53.254;10.352;2023-01-01T15:13:21;12.10;99.90
7048;DHT22;3565;53.254;10.352;2023-01-01T15:15:51;12.20;99.90
7048;DHT22;3565;53.254;10.352;2023-01-01T15:18:41;12.10;99.90
7048;DHT22;3565;53.254;10.352;2023-01-01T15:21:16;12.10;99.90
7048;DHT22;3565;53.254;10.352;2023-01-01T15:23:51;12.00;99.90
7048;DHT22;3565;53.254;10.352;2023-01-01T15:26:30;12.10;99.90
7048;DHT22;3565;53.254;10.352;2023-01-01T15:31:41;12.00;1.00
7048;DHT22;3565;53.254;10.352;2023-01-01T15:34:21;12.00;99.90
7048;DHT22;3565;53.254;10.352;2023-01-01T15:36:52;12.20;99.90
7048;DHT22;3565;53.254;10.352;2023-01-01T15:39:23;12.20;99.90
7048;DHT22;3565;53.254;10.352;2023-01-01T15:41:53;12.10;1.00
7048;DHT22;3565;53.254;10.352;2023-01-01T15:44:28;12.10;1.00
7048;DHT22;3565;53.254;10.352;2023-01-01T15:47:10;12.00;99.90
7048;DHT22;3565;53.254;10.352;2023-01-01T15:49:39;11.90;1.00
7048;DHT22;3565;53.254;10.352;2023-01-01T15:54:54;11.80;1.00
7048;DHT22;3565;53.254;10.352;2023-01-01T15:57:23;11.80;1.00
7048;DHT22;3565;53.254;10.352;2023-01-01T15:59:52;11.90;1.00
7048;DHT22;3565;53.254;10.352;2023-01-01T16:02:24;11.90;1.00
7048;DHT22;3565;53.254;10.352;2023-01-01T16:04:54;11.80;99.90
7048;DHT22;3565;53.254;10.352;2023-01-01T16:07:24;11.80;1.00
7048;DHT22;3565;53.254;10.352;2023-01-01T16:09:54;11.80;1.00
7048;DHT22;3565;53.254;10.352;2023-01-01T16:12:24;11.80;1.00
7048;DHT22;3565;53.254;10.352;2023-01-01T16:14:53;11.70;1.00
7048;DHT22;3565;53.254;10.352;2023-01-01T16:17:22;11.70;1.00
7048;DHT22;3565;53.254;10.352;2023-01-01T16:19:52;11.70;1.00
7048;DHT22;3565;53.254;10.352;2023-01-01T16:22:22;11.70;1.00
7048;DHT22;3565;53.254;10.352;2023-01-01T16:24:52;11.70;1.00
7048;DHT22;3565;53.254;10.352;2023-01-01T16:27:22;11.70;1.00
7048;DHT22;3565;53.254;10.352;2023-01-01T16:29:51;11.70;1.00
7048;DHT22;3565;53.254;10.352;2023-01-01T16:32:21;11.60;1.00
7048;DHT22;3565;53.254;10.352;2023-01-01T16:34:50;11.50;1.00
7048;DHT22;3565;53.254;10.352;2023-01-01T16:37:19;11.50;1.00
7048;DHT22;3565;53.254;10.352;2023-01-01T16:39:50;11.40;99.90
7048;DHT22;3565;53.254;10.352;2023-01-01T16:42:19;11.40;1.00
7048;DHT22;3565;53.254;10.352;2023-01-01T16:44:49;11.50;1.00
7048;DHT22;3565;53.254;10.352;2023-01-01T16:47:18;11.40;88.40
7048;DHT22;3565;53.254;10.352;2023-01-01T16:49:49;11.30;99.90
7048;DHT22;3565;53.254;10.352;2023-01-01T16:52:19;11.30;1.00
7048;DHT22;3565;53.254;10.352;2023-01-01T16:54:57;11.30;1.00
7048;DHT22;3565;53.254;10.352;2023-01-01T16:57:28;11.20;1.00
7048;DHT22;3565;53.254;10.352;2023-01-01T16:59:57;11.20;1.00
7048;DHT22;3565;53.254;10.352;2023-01-01T17:02:37;11.20;1.00
7048;DHT22;3565;53.254;10.352;2023-01-01T17:05:16;11.30;1.00
7048;DHT22;3565;53.254;10.352;2023-01-01T17:07:45;11.30;1.00
7048;DHT22;3565;53.254;10.352;2023-01-01T17:10:15;11.20;1.00
7048;DHT22;3565;53.254;10.352;2023-01-01T17:12:44;11.30;1.00
7048;DHT22;3565;53.254;10.352;2023-01-01T17:15:14;11.20;1.00
7048;DHT22;3565;53.254;10.352;2023-01-01T17:17:43;11.20;1.00
7048;DHT22;3565;53.254;10.352;2023-01-01T17:20:12;11.10;39.00
7048;DHT22;3565;53.254;10.352;2023-01-01T17:22:41;11.10;73.50
7048;DHT22;3565;53.254;10.352;2023-01-01T17:25:10;11.00;69.70
7048;DHT22;3565;53.254;10.352;2023-01-01T17:27:40;10.90;99.90
7048;DHT22;3565;53.254;10.352;2023-01-01T17:30:11;10.90;99.90
7048;DHT22;3565;53.254;10.352;2023-01-01T17:32:40;10.80;99.90
7048;DHT22;3565;53.254;10.352;2023-01-01T17:35:10;10.90;99.90
7048;DHT22;3565;53.254;10.352;2023-01-01T17:37:39;10.90;99.90
7048;DHT22;3565;53.254;10.352;2023-01-01T17:40:11;10.80;99.90
7048;DHT22;3565;53.254;10.352;2023-01-01T17:42:40;10.70;1.00
7048;DHT22;3565;53.254;10.352;2023-01-01T17:45:10;10.70;1.00
7048;DHT22;3565;53.254;10.352;2023-01-01T17:47:42;10.70;1.00
7048;DHT22;3565;53.254;10.352;2023-01-01T17:50:11;10.70;1.00
7048;DHT22;3565;53.254;10.352;2023-01-01T17:52:40;10.70;1.00
7048;DHT22;3565;53.254;10.352;2023-01-01T17:55:09;10.70;1.00
7048;DHT22;3565;53.254;10.352;2023-01-01T17:57:39;10.60;1.00
7048;DHT22;3565;53.254;10.352;2023-01-01T18:00:11;10.70;1.00
7048;DHT22;3565;53.254;10.352;2023-01-01T18:02:40;10.70;1.00
7048;DHT22;3565;53.254;10.352;2023-01-01T18:05:10;10.70;1.00
7048;DHT22;3565;53.254;10.352;2023-01-01T18:07:40;10.70;1.00
7048;DHT22;3565;53.254;10.352;2023-01-01T18:12:52;10.90;99.90
7048;DHT22;3565;53.254;10.352;2023-01-01T18:15:23;10.80;99.90
7048;DHT22;3565;53.254;10.352;2023-01-01T18:17:52;10.80;99.90
7048;DHT22;3565;53.254;10.352;2023-01-01T18:23:00;10.80;99.90
7048;DHT22;3565;53.254;10.352;2023-01-01T18:25:30;10.80;99.90
7048;DHT22;3565;53.254;10.352;2023-01-01T18:28:00;10.90;99.90
7048;DHT22;3565;53.254;10.352;2023-01-01T18:30:29;10.90;99.90
7048;DHT22;3565;53.254;10.352;2023-01-01T18:32:58;10.90;99.90
7048;DHT22;3565;53.254;10.352;2023-01-01T18:35:28;10.80;99.90
7048;DHT22;3565;53.254;10.352;2023-01-01T18:37:58;10.80;99.90
7048;DHT22;3565;53.254;10.352;2023-01-01T18:43:08;10.70;1.00
7048;DHT22;3565;53.254;10.352;2023-01-01T18:45:38;10.70;1.00
7048;DHT22;3565;53.254;10.352;2023-01-01T18:48:11;10.70;1.00
7048;DHT22;3565;53.254;10.352;2023-01-01T18:50:41;10.70;1.00
7048;DHT22;3565;53.254;10.352;2023-01-01T18:53:13;10.60;1.00
7048;DHT22;3565;53.254;10.352;2023-01-01T18:55:44;10.60;1.00
7048;DHT22;3565;53.254;10.352;2023-01-01T18:58:17;10.60;1.00
7048;DHT22;3565;53.254;10.352;2023-01-01T19:00:47;10.60;1.00
7048;DHT22;3565;53.254;10.352;2023-01-01T19:03:17;10.60;1.00
7048;DHT22;3565;53.254;10.352;2023-01-01T19:05:49;10.60;1.00
7048;DHT22;3565;53.254;10.352;2023-01-01T19:08:20;10.60;1.00
7048;DHT22;3565;53.254;10.352;2023-01-01T19:10:51;10.60;1.00
7048;DHT22;3565;53.254;10.352;2023-01-01T19:13:23;10.50;1.00
7048;DHT22;3565;53.254;10.352;2023-01-01T19:21:18;9.00;1.00
7048;DHT22;3565;53.254;10.352;2023-01-01T19:26:32;10.50;1.00
7048;DHT22;3565;53.254;10.352;2023-01-01T19:29:06;10.50;1.00
7048;DHT22;3565;53.254;10.352;2023-01-01T19:31:33;10.60;1.00
7048;DHT22;3565;53.254;10.352;2023-01-01T19:40:10;10.60;1.00
7048;DHT22;3565;53.254;10.352;2023-01-01T19:42:44;10.60;1.00
7048;DHT22;3565;53.254;10.352;2023-01-01T19:45:14;10.60;1.00
7048;DHT22;3565;53.254;10.352;2023-01-01T19:47:44;10.50;1.00
7048;DHT22;3565;53.254;10.352;2023-01-01T19:50:13;10.50;1.00
7048;DHT22;3565;53.254;10.352;2023-01-01T19:52:43;10.50;1.00
7048;DHT22;3565;53.254;10.352;2023-01-01T19:55:13;10.50;1.00
7048;DHT22;3565;53.254;10.352;2023-01-01T19:57:43;10.50;1.00
7048;DHT22;3565;53.254;10.352;2023-01-01T20:00:14;10.50;1.00
7048;DHT22;3565;53.254;10.352;2023-01-01T20:02:45;10.50;1.00
7048;DHT22;3565;53.254;10.352;2023-01-01T20:05:14;10.40;1.00
7048;DHT22;3565;53.254;10.352;2023-01-01T20:07:44;10.40;1.00
7048;DHT22;3565;53.254;10.352;2023-01-01T20:10:15;10.40;1.00
7048;DHT22;3565;53.254;10.352;2023-01-01T20:13:03;10.40;1.00
7048;DHT22;3565;53.254;10.352;2023-01-01T20:15:35;10.40;1.00
7048;DHT22;3565;53.254;10.352;2023-01-01T20:18:05;10.30;1.00
7048;DHT22;3565;53.254;10.352;2023-01-01T20:23:14;10.40;1.00
7048;DHT22;3565;53.254;10.352;2023-01-01T20:25:45;10.40;1.00
7048;DHT22;3565;53.254;10.352;2023-01-01T20:28:15;10.40;1.00
7048;DHT22;3565;53.254;10.352;2023-01-01T20:31:04;10.40;1.00
7048;DHT22;3565;53.254;10.352;2023-01-01T20:33:34;10.40;1.00
7048;DHT22;3565;53.254;10.352;2023-01-01T20:36:08;10.40;1.00
7048;DHT22;3565;53.254;10.352;2023-01-01T20:38:58;10.50;1.00
7048;DHT22;3565;53.254;10.352;2023-01-01T20:41:29;10.60;99.90
7048;DHT22;3565;53.254;10.352;2023-01-01T20:44:01;10.60;1.00
7048;DHT22;3565;53.254;10.352;2023-01-01T20:49:12;8.80;99.90
7048;DHT22;3565;53.254;10.352;2023-01-01T20:51:44;10.70;99.90
7048;DHT22;3565;53.254;10.352;2023-01-01T20:54:14;10.70;99.90
7048;DHT22;3565;53.254;10.352;2023-01-01T20:56:45;10.70;99.90
7048;DHT22;3565;53.254;10.352;2023-01-01T20:59:16;10.70;99.90
7048;DHT22;3565;53.254;10.352;2023-01-01T21:01:47;10.70;99.90
7048;DHT22;3565;53.254;10.352;2023-01-01T21:07:01;10.70;90.40
7048;DHT22;3565;53.254;10.352;2023-01-01T21:09:31;10.70;99.90
7048;DHT22;3565;53.254;10.352;2023-01-01T21:14:39;10.80;79.70
7048;DHT22;3565;53.254;10.352;2023-01-01T21:17:18;10.80;1.00
7048;DHT22;3565;53.254;10.352;2023-01-01T21:19:50;10.80;1.00
7048;DHT22;3565;53.254;10.352;2023-01-01T21:22:21;10.80;1.00
7048;DHT22;3565;53.254;10.352;2023-01-01T21:24:51;10.80;1.00
7048;DHT22;3565;53.254;10.352;2023-01-01T21:27:33;10.80;99.90
7048;DHT22;3565;53.254;10.352;2023-01-01T21:30:09;10.80;99.90
7048;DHT22;3565;53.254;10.352;2023-01-01T21:32:41;10.80;99.90
7048;DHT22;3565;53.254;10.352;2023-01-01T21:35:18;10.80;99.90
7048;DHT22;3565;53.254;10.352;2023-01-01T21:37:50;10.80;1.00
7048;DHT22;3565;53.254;10.352;2023-01-01T21:46:37;10.70;1.00
7048;DHT22;3565;53.254;10.352;2023-01-01T21:51:54;10.50;18.20
7048;DHT22;3565;53.254;10.352;2023-01-01T21:54:29;10.60;78.60
7048;DHT22;3565;53.254;10.352;2023-01-01T21:59:41;10.60;99.90
7048;DHT22;3565;53.254;10.352;2023-01-01T22:02:31;10.60;99.90
7048;DHT22;3565;53.254;10.352;2023-01-01T22:05:16;10.50;99.90
7048;DHT22;3565;53.254;10.352;2023-01-01T22:07:47;10.60;99.90
7048;DHT22;3565;53.254;10.352;2023-01-01T22:10:21;10.50;99.90
7048;DHT22;3565;53.254;10.352;2023-01-01T22:12:55;10.40;99.90
7048;DHT22;3565;53.254;10.352;2023-01-01T22:15:31;10.40;99.90
7048;DHT22;3565;53.254;10.352;2023-01-01T22:18:16;10.40;1.00
7048;DHT22;3565;53.254;10.352;2023-01-01T22:20:55;10.40;1.00
7048;DHT22;3565;53.254;10.352;2023-01-01T22:23:36;10.40;1.00
7048;DHT22;3565;53.254;10.352;2023-01-01T22:26:24;10.40;1.00
7048;DHT22;3565;53.254;10.352;2023-01-01T22:28:57;10.30;1.00
7048;DHT22;3565;53.254;10.352;2023-01-01T22:31:48;10.20;1.00
7048;DHT22;3565;53.254;10.352;2023-01-01T22:34:21;10.10;37.60
7048;DHT22;3565;53.254;10.352;2023-01-01T22:40:14;10.00;99.90
7048;DHT22;3565;53.254;10.352;2023-01-01T22:42:41;10.00;99.90
7048;DHT22;3565;53.254;10.352;2023-01-01T22:45:14;10.00;99.90
7048;DHT22;3565;53.254;10.352;2023-01-01T22:47:45;10.00;99.90
7048;DHT22;3565;53.254;10.352;2023-01-01T22:50:20;9.90;99.90
7048;DHT22;3565;53.254;10.352;2023-01-01T22:52:50;9.90;99.90
7048;DHT22;3565;53.254;10.352;2023-01-01T22:55:20;9.80;99.90
7048;DHT22;3565;53.254;10.352;2023-01-01T22:57:50;9.90;99.90
7048;DHT22;3565;53.254;10.352;2023-01-01T23:00:20;9.90;99.90
7048;DHT22;3565;53.254;10.352;2023-01-01T23:02:49;9.90;99.90
7048;DHT22;3565;53.254;10.352;2023-01-01T23:05:18;9.80;99.90
7048;DHT22;3565;53.254;10.352;2023-01-01T23:07:48;9.80;99.90
7048;DHT22;3565;53.254;10.352;2023-01-01T23:10:17;9.80;99.90
7048;DHT22;3565;53.254;10.352;2023-01-01T23:12:46;9.90;99.90
7048;DHT22;3565;53.254;10.352;2023-01-01T23:15:16;9.90;99.90
7048;DHT22;3565;53.254;10.352;2023-01-01T23:18:03;9.90;99.90
7048;DHT22;3565;53.254;10.352;2023-01-01T23:23:13;9.90;99.90
7048;DHT22;3565;53.254;10.352;2023-01-01T23:25:42;9.90;99.90
7048;DHT22;3565;53.254;10.352;2023-01-01T23:28:12;9.90;99.90
7048;DHT22;3565;53.254;10.352;2023-01-01T23:30:41;9.90;99.90
7048;DHT22;3565;53.254;10.352;2023-01-01T23:33:11;9.80;99.90
7048;DHT22;3565;53.254;10.352;2023-01-01T23:35:41;9.80;99.90
7048;DHT22;3565;53.254;10.352;2023-01-01T23:38:10;9.80;99.90
7048;DHT22;3565;53.254;10.352;2023-01-01T23:40:39;9.80;99.90
7048;DHT22;3565;53.254;10.352;2023-01-01T23:43:09;9.80;99.90
7048;DHT22;3565;53.254;10.352;2023-01-01T23:48:23;9.80;99.90
7048;DHT22;3565;53.254;10.352;2023-01-01T23:50:52;9.90;99.90
7048;DHT22;3565;53.254;10.352;2023-01-01T23:53:22;9.80;99.90
7048;DHT22;3565;53.254;10.352;2023-01-01T23:55:51;9.90;99.90
7048;DHT22;3565;53.254;10.352;2023-01-01T23:58:20;9.80;99.90
